sensor_id;sensor_type;location;lat;lon;timestamp;pressure;altitude;pressure_sealevel;temperature;humidity
49063;BME280;34876;51.464;-0.150;2022-07-10T00:03:32;102866.33;;;24.44;43.76
49063;BME280;34876;51.464;-0.150;2022-07-10T00:06:01;102859.30;;;24.42;43.81
49063;BME280;34876;51.464;-0.150;2022-07-10T00:08:31;102855.23;;;24.41;43.81
49063;BME280;34876;51.464;-0.150;2022-07-10T00:11:00;102857.66;;;24.40;43.85
49063;BME280;34876;51.464;-0.150;2022-07-10T00:13:30;102855.54;;;24.40;43.84
49063;BME280;34876;51.464;-0.150;2022-07-10T00:15:59;102855.64;;;24.41;43.82
49063;BME280;34876;51.464;-0.150;2022-07-10T00:18:30;102857.93;;;24.40;43.84
49063;BME280;34876;51.464;-0.150;2022-07-10T00:20:59;102858.22;;;24.40;43.86
49063;BME280;34876;51.464;-0.150;2022-07-10T00:23:28;102854.44;;;24.40;43.85
49063;BME280;34876;51.464;-0.150;2022-07-10T00:25:57;102853.65;;;24.38;43.89
49063;BME280;34876;51.464;-0.150;2022-07-10T00:28:27;102849.88;;;24.38;43.91
49063;BME280;34876;51.464;-0.150;2022-07-10T00:30:56;102850.46;;;24.37;43.93
49063;BME280;34876;51.464;-0.150;2022-07-10T00:33:25;102852.10;;;24.39;43.88
49063;BME280;34876;51.464;-0.150;2022-07-10T00:35:56;102851.19;;;24.38;43.90
49063;BME280;34876;51.464;-0.150;2022-07-10T00:38:25;102850.02;;;24.38;43.92
49063;BME280;34876;51.464;-0.150;2022-07-10T00:40:55;102850.08;;;24.36;43.95
49063;BME280;34876;51.464;-0.150;2022-07-10T00:43:26;102847.11;;;24.38;43.92
49063;BME280;34876;51.464;-0.150;2022-07-10T00:45:56;102844.69;;;24.37;43.94
49063;BME280;34876;51.464;-0.150;2022-07-10T00:48:26;102845.77;;;24.35;43.96
49063;BME280;34876;51.464;-0.150;2022-07-10T00:50:57;102845.82;;;24.35;43.97
49063;BME280;34876;51.464;-0.150;2022-07-10T00:53:27;102843.15;;;24.33;44.03
49063;BME280;34876;51.464;-0.150;2022-07-10T00:55:58;102843.05;;;24.33;44.03
49063;BME280;34876;51.464;-0.150;2022-07-10T00:58:28;102841.67;;;24.32;44.04
49063;BME280;34876;51.464;-0.150;2022-07-10T01:00:59;102836.52;;;24.33;44.04
49063;BME280;34876;51.464;-0.150;2022-07-10T01:03:30;102833.41;;;24.34;44.01
49063;BME280;34876;51.464;-0.150;2022-07-10T01:06:02;102833.91;;;24.33;44.05
49063;BME280;34876;51.464;-0.150;2022-07-10T01:08:32;102828.89;;;24.31;44.06
49063;BME280;34876;51.464;-0.150;2022-07-10T01:11:03;102832.16;;;24.33;44.04
49063;BME280;34876;51.464;-0.150;2022-07-10T01:13:33;102826.70;;;24.31;44.07
49063;BME280;34876;51.464;-0.150;2022-07-10T01:16:03;102827.76;;;24.31;44.08
49063;BME280;34876;51.464;-0.150;2022-07-10T01:18:33;102831.19;;;24.29;44.15
49063;BME280;34876;51.464;-0.150;2022-07-10T01:21:04;102830.73;;;24.29;44.13
49063;BME280;34876;51.464;-0.150;2022-07-10T01:23:37;102828.75;;;24.29;44.14
49063;BME280;34876;51.464;-0.150;2022-07-10T01:26:12;102832.41;;;24.28;44.17
49063;BME280;34876;51.464;-0.150;2022-07-10T01:28:42;102833.06;;;24.25;44.28
49063;BME280;34876;51.464;-0.150;2022-07-10T01:31:12;102831.74;;;24.24;44.29
49063;BME280;34876;51.464;-0.150;2022-07-10T01:33:42;102830.46;;;24.22;44.34
49063;BME280;34876;51.464;-0.150;2022-07-10T01:36:12;102829.57;;;24.22;44.34
49063;BME280;34876;51.464;-0.150;2022-07-10T01:38:41;102826.51;;;24.22;44.35
49063;BME280;34876;51.464;-0.150;2022-07-10T01:41:11;102825.92;;;24.21;44.35
49063;BME280;34876;51.464;-0.150;2022-07-10T01:43:41;102824.59;;;24.22;44.34
49063;BME280;34876;51.464;-0.150;2022-07-10T01:46:11;102822.27;;;24.21;44.36
49063;BME280;34876;51.464;-0.150;2022-07-10T01:48:40;102823.45;;;24.21;44.36
49063;BME280;34876;51.464;-0.150;2022-07-10T01:51:11;102821.02;;;24.21;44.37
49063;BME280;34876;51.464;-0.150;2022-07-10T01:53:41;102820.80;;;24.21;44.36
49063;BME280;34876;51.464;-0.150;2022-07-10T01:56:13;102817.02;;;24.21;44.36
49063;BME280;34876;51.464;-0.150;2022-07-10T01:58:43;102815.36;;;24.20;44.38
49063;BME280;34876;51.464;-0.150;2022-07-10T02:01:13;102816.83;;;24.20;44.37
49063;BME280;34876;51.464;-0.150;2022-07-10T02:03:42;102818.61;;;24.21;44.35
49063;BME280;34876;51.464;-0.150;2022-07-10T02:06:14;102819.56;;;24.21;44.33
49063;BME280;34876;51.464;-0.150;2022-07-10T02:08:43;102818.99;;;24.23;44.27
49063;BME280;34876;51.464;-0.150;2022-07-10T02:11:13;102816.95;;;24.20;44.33
49063;BME280;34876;51.464;-0.150;2022-07-10T02:13:42;102814.56;;;24.18;44.36
49063;BME280;34876;51.464;-0.150;2022-07-10T02:16:11;102813.93;;;24.18;44.35
49063;BME280;34876;51.464;-0.150;2022-07-10T02:18:41;102813.62;;;24.19;44.31
49063;BME280;34876;51.464;-0.150;2022-07-10T02:21:11;102817.60;;;24.17;44.34
49063;BME280;34876;51.464;-0.150;2022-07-10T02:23:41;102816.65;;;24.17;44.35
49063;BME280;34876;51.464;-0.150;2022-07-10T02:26:09;102816.72;;;24.16;44.35
49063;BME280;34876;51.464;-0.150;2022-07-10T02:28:38;102816.03;;;24.18;44.31
49063;BME280;34876;51.464;-0.150;2022-07-10T02:31:07;102816.06;;;24.15;44.38
49063;BME280;34876;51.464;-0.150;2022-07-10T02:33:37;102816.25;;;24.17;44.34
49063;BME280;34876;51.464;-0.150;2022-07-10T02:36:06;102818.10;;;24.16;44.34
49063;BME280;34876;51.464;-0.150;2022-07-10T02:38:35;102818.22;;;24.16;44.34
49063;BME280;34876;51.464;-0.150;2022-07-10T02:41:04;102813.90;;;24.15;44.35
49063;BME280;34876;51.464;-0.150;2022-07-10T02:43:34;102812.23;;;24.14;44.35
49063;BME280;34876;51.464;-0.150;2022-07-10T02:46:04;102809.34;;;24.13;44.35
49063;BME280;34876;51.464;-0.150;2022-07-10T02:48:34;102808.44;;;24.15;44.33
49063;BME280;34876;51.464;-0.150;2022-07-10T02:51:03;102810.71;;;24.13;44.34
49063;BME280;34876;51.464;-0.150;2022-07-10T02:53:32;102808.44;;;24.12;44.35
49063;BME280;34876;51.464;-0.150;2022-07-10T02:56:02;102805.15;;;24.12;44.35
49063;BME280;34876;51.464;-0.150;2022-07-10T02:58:32;102804.53;;;24.12;44.33
49063;BME280;34876;51.464;-0.150;2022-07-10T03:01:02;102804.80;;;24.11;44.33
49063;BME280;34876;51.464;-0.150;2022-07-10T03:03:31;102803.66;;;24.13;44.29
49063;BME280;34876;51.464;-0.150;2022-07-10T03:06:00;102803.55;;;24.13;44.25
49063;BME280;34876;51.464;-0.150;2022-07-10T03:08:29;102803.72;;;24.13;44.26
49063;BME280;34876;51.464;-0.150;2022-07-10T03:10:58;102801.33;;;24.14;44.15
49063;BME280;34876;51.464;-0.150;2022-07-10T03:13:27;102799.16;;;24.12;44.18
49063;BME280;34876;51.464;-0.150;2022-07-10T03:15:57;102796.50;;;24.11;44.16
49063;BME280;34876;51.464;-0.150;2022-07-10T03:18:27;102796.03;;;24.11;44.14
49063;BME280;34876;51.464;-0.150;2022-07-10T03:20:57;102792.72;;;24.11;44.09
49063;BME280;34876;51.464;-0.150;2022-07-10T03:23:27;102790.63;;;24.11;44.07
49063;BME280;34876;51.464;-0.150;2022-07-10T03:25:56;102788.53;;;24.11;44.05
49063;BME280;34876;51.464;-0.150;2022-07-10T03:28:25;102787.21;;;24.09;44.03
49063;BME280;34876;51.464;-0.150;2022-07-10T03:30:54;102784.47;;;24.09;44.03
49063;BME280;34876;51.464;-0.150;2022-07-10T03:33:24;102783.73;;;24.09;43.99
49063;BME280;34876;51.464;-0.150;2022-07-10T03:35:53;102782.63;;;24.07;44.02
49063;BME280;34876;51.464;-0.150;2022-07-10T03:38:22;102780.23;;;24.07;43.96
49063;BME280;34876;51.464;-0.150;2022-07-10T03:40:51;102776.88;;;24.07;43.93
49063;BME280;34876;51.464;-0.150;2022-07-10T03:43:20;102774.53;;;24.06;43.92
49063;BME280;34876;51.464;-0.150;2022-07-10T03:45:49;102772.04;;;24.06;43.90
49063;BME280;34876;51.464;-0.150;2022-07-10T03:48:18;102771.45;;;24.07;43.85
49063;BME280;34876;51.464;-0.150;2022-07-10T03:50:49;102765.92;;;24.05;43.86
49063;BME280;34876;51.464;-0.150;2022-07-10T03:53:19;102765.58;;;24.04;43.86
49063;BME280;34876;51.464;-0.150;2022-07-10T03:55:48;102767.61;;;24.04;43.80
49063;BME280;34876;51.464;-0.150;2022-07-10T03:58:17;102766.53;;;24.04;43.79
49063;BME280;34876;51.464;-0.150;2022-07-10T04:00:46;102767.56;;;24.03;43.79
49063;BME280;34876;51.464;-0.150;2022-07-10T04:03:16;102768.26;;;24.03;43.79
49063;BME280;34876;51.464;-0.150;2022-07-10T04:05:45;102769.19;;;24.03;43.75
49063;BME280;34876;51.464;-0.150;2022-07-10T04:08:15;102769.00;;;24.02;43.75
49063;BME280;34876;51.464;-0.150;2022-07-10T04:10:44;102769.06;;;24.01;43.76
49063;BME280;34876;51.464;-0.150;2022-07-10T04:13:14;102766.70;;;24.02;43.71
49063;BME280;34876;51.464;-0.150;2022-07-10T04:15:43;102761.07;;;23.99;43.76
49063;BME280;34876;51.464;-0.150;2022-07-10T04:18:12;102763.98;;;24.00;43.69
49063;BME280;34876;51.464;-0.150;2022-07-10T04:20:41;102765.28;;;24.01;43.70
49063;BME280;34876;51.464;-0.150;2022-07-10T04:23:11;102763.70;;;24.00;43.67
49063;BME280;34876;51.464;-0.150;2022-07-10T04:25:40;102765.01;;;24.00;43.65
49063;BME280;34876;51.464;-0.150;2022-07-10T04:28:09;102761.34;;;23.99;43.63
49063;BME280;34876;51.464;-0.150;2022-07-10T04:30:38;102761.39;;;24.00;43.61
49063;BME280;34876;51.464;-0.150;2022-07-10T04:33:07;102758.90;;;24.01;43.55
49063;BME280;34876;51.464;-0.150;2022-07-10T04:35:36;102760.26;;;24.01;43.54
49063;BME280;34876;51.464;-0.150;2022-07-10T04:38:07;102764.30;;;24.00;43.55
49063;BME280;34876;51.464;-0.150;2022-07-10T04:40:36;102764.22;;;24.02;43.43
49063;BME280;34876;51.464;-0.150;2022-07-10T04:43:05;102763.75;;;24.01;43.45
49063;BME280;34876;51.464;-0.150;2022-07-10T04:45:34;102763.41;;;24.02;43.43
49063;BME280;34876;51.464;-0.150;2022-07-10T04:48:04;102763.20;;;24.02;43.42
49063;BME280;34876;51.464;-0.150;2022-07-10T04:50:33;102764.54;;;24.02;43.37
49063;BME280;34876;51.464;-0.150;2022-07-10T04:53:03;102764.52;;;24.27;42.76
49063;BME280;34876;51.464;-0.150;2022-07-10T04:55:32;102762.60;;;24.79;41.54
49063;BME280;34876;51.464;-0.150;2022-07-10T04:58:02;102770.31;;;24.28;42.61
49063;BME280;34876;51.464;-0.150;2022-07-10T05:00:31;102771.89;;;24.18;42.88
49063;BME280;34876;51.464;-0.150;2022-07-10T05:03:01;102771.61;;;24.15;42.92
49063;BME280;34876;51.464;-0.150;2022-07-10T05:05:29;102773.03;;;24.14;42.92
49063;BME280;34876;51.464;-0.150;2022-07-10T05:07:59;102772.02;;;24.16;42.87
49063;BME280;34876;51.464;-0.150;2022-07-10T05:10:28;102770.52;;;24.17;42.82
49063;BME280;34876;51.464;-0.150;2022-07-10T05:12:57;102770.72;;;24.27;42.59
49063;BME280;34876;51.464;-0.150;2022-07-10T05:15:27;102768.20;;;24.50;42.03
49063;BME280;34876;51.464;-0.150;2022-07-10T05:17:56;102773.12;;;24.25;42.57
49063;BME280;34876;51.464;-0.150;2022-07-10T05:20:25;102773.68;;;24.20;42.64
49063;BME280;34876;51.464;-0.150;2022-07-10T05:22:54;102772.94;;;24.19;42.67
49063;BME280;34876;51.464;-0.150;2022-07-10T05:25:24;102775.80;;;24.43;42.12
49063;BME280;34876;51.464;-0.150;2022-07-10T05:27:53;102769.51;;;24.72;41.41
49063;BME280;34876;51.464;-0.150;2022-07-10T05:30:22;102773.10;;;24.48;41.95
49063;BME280;34876;51.464;-0.150;2022-07-10T05:32:51;102774.61;;;24.31;42.35
49063;BME280;34876;51.464;-0.150;2022-07-10T05:35:21;102773.79;;;24.27;42.45
49063;BME280;34876;51.464;-0.150;2022-07-10T05:37:49;102770.85;;;24.29;42.39
49063;BME280;34876;51.464;-0.150;2022-07-10T05:40:20;102771.51;;;24.29;42.41
49063;BME280;34876;51.464;-0.150;2022-07-10T05:42:49;102771.28;;;24.26;42.47
49063;BME280;34876;51.464;-0.150;2022-07-10T05:45:18;102772.03;;;24.28;42.45
49063;BME280;34876;51.464;-0.150;2022-07-10T05:47:48;102774.00;;;24.25;42.50
49063;BME280;34876;51.464;-0.150;2022-07-10T05:50:17;102774.00;;;24.26;42.45
49063;BME280;34876;51.464;-0.150;2022-07-10T05:52:47;102772.02;;;24.27;42.46
49063;BME280;34876;51.464;-0.150;2022-07-10T05:55:16;102770.14;;;24.27;42.45
49063;BME280;34876;51.464;-0.150;2022-07-10T05:57:46;102768.42;;;24.30;42.34
49063;BME280;34876;51.464;-0.150;2022-07-10T06:00:16;102768.17;;;24.29;42.31
49063;BME280;34876;51.464;-0.150;2022-07-10T06:02:46;102764.92;;;24.29;42.32
49063;BME280;34876;51.464;-0.150;2022-07-10T06:05:15;102766.02;;;24.28;42.36
49063;BME280;34876;51.464;-0.150;2022-07-10T06:07:44;102770.61;;;24.29;42.31
49063;BME280;34876;51.464;-0.150;2022-07-10T06:10:13;102769.71;;;24.31;42.24
49063;BME280;34876;51.464;-0.150;2022-07-10T06:12:42;102767.81;;;24.30;42.24
49063;BME280;34876;51.464;-0.150;2022-07-10T06:15:11;102768.97;;;24.32;42.19
49063;BME280;34876;51.464;-0.150;2022-07-10T06:17:41;102766.60;;;24.36;42.05
49063;BME280;34876;51.464;-0.150;2022-07-10T06:20:10;102765.26;;;24.36;42.03
49063;BME280;34876;51.464;-0.150;2022-07-10T06:22:40;102765.42;;;24.37;42.00
49063;BME280;34876;51.464;-0.150;2022-07-10T06:25:09;102764.97;;;24.37;41.97
49063;BME280;34876;51.464;-0.150;2022-07-10T06:27:38;102763.99;;;24.40;41.88
49063;BME280;34876;51.464;-0.150;2022-07-10T06:30:08;102762.12;;;24.42;41.83
49063;BME280;34876;51.464;-0.150;2022-07-10T06:32:38;102763.38;;;24.40;41.87
49063;BME280;34876;51.464;-0.150;2022-07-10T06:35:08;102762.73;;;24.42;41.81
49063;BME280;34876;51.464;-0.150;2022-07-10T06:37:37;102761.26;;;24.50;41.62
49063;BME280;34876;51.464;-0.150;2022-07-10T06:40:09;102762.13;;;24.50;41.61
49063;BME280;34876;51.464;-0.150;2022-07-10T06:42:39;102760.98;;;24.47;41.65
49063;BME280;34876;51.464;-0.150;2022-07-10T06:45:10;102762.38;;;24.44;41.75
49063;BME280;34876;51.464;-0.150;2022-07-10T06:47:40;102758.53;;;24.50;41.62
49063;BME280;34876;51.464;-0.150;2022-07-10T06:50:09;102757.16;;;24.50;41.58
49063;BME280;34876;51.464;-0.150;2022-07-10T06:52:39;102754.32;;;24.56;41.45
49063;BME280;34876;51.464;-0.150;2022-07-10T06:55:09;102752.53;;;24.54;41.53
49063;BME280;34876;51.464;-0.150;2022-07-10T06:57:39;102750.81;;;24.53;41.50
49063;BME280;34876;51.464;-0.150;2022-07-10T07:00:10;102752.73;;;24.57;41.40
49063;BME280;34876;51.464;-0.150;2022-07-10T07:02:40;102751.39;;;24.59;41.39
49063;BME280;34876;51.464;-0.150;2022-07-10T07:05:09;102751.74;;;24.63;41.33
49063;BME280;34876;51.464;-0.150;2022-07-10T07:07:38;102750.32;;;24.62;41.35
49063;BME280;34876;51.464;-0.150;2022-07-10T07:10:08;102747.79;;;24.63;41.31
49063;BME280;34876;51.464;-0.150;2022-07-10T07:12:39;102751.15;;;24.66;41.28
49063;BME280;34876;51.464;-0.150;2022-07-10T07:15:08;102749.96;;;24.60;41.39
49063;BME280;34876;51.464;-0.150;2022-07-10T07:17:40;102744.83;;;24.60;41.38
49063;BME280;34876;51.464;-0.150;2022-07-10T07:20:10;102745.06;;;24.61;41.34
49063;BME280;34876;51.464;-0.150;2022-07-10T07:22:39;102743.11;;;24.64;41.31
49063;BME280;34876;51.464;-0.150;2022-07-10T07:25:10;102741.66;;;24.58;41.42
49063;BME280;34876;51.464;-0.150;2022-07-10T07:27:39;102740.29;;;24.66;41.25
49063;BME280;34876;51.464;-0.150;2022-07-10T07:30:11;102739.36;;;24.63;41.28
49063;BME280;34876;51.464;-0.150;2022-07-10T07:32:41;102733.99;;;24.72;41.11
49063;BME280;34876;51.464;-0.150;2022-07-10T07:35:12;102732.09;;;24.69;41.16
49063;BME280;34876;51.464;-0.150;2022-07-10T07:37:42;102733.67;;;24.32;41.95
49063;BME280;34876;51.464;-0.150;2022-07-10T07:40:14;102729.51;;;24.69;41.22
49063;BME280;34876;51.464;-0.150;2022-07-10T07:42:44;102733.08;;;24.77;41.07
49063;BME280;34876;51.464;-0.150;2022-07-10T07:45:13;102734.69;;;24.83;40.92
49063;BME280;34876;51.464;-0.150;2022-07-10T07:47:44;102736.54;;;24.80;40.99
49063;BME280;34876;51.464;-0.150;2022-07-10T07:50:14;102734.96;;;24.69;41.16
49063;BME280;34876;51.464;-0.150;2022-07-10T07:52:44;102735.07;;;24.73;41.12
49063;BME280;34876;51.464;-0.150;2022-07-10T07:55:15;102734.30;;;24.76;41.06
49063;BME280;34876;51.464;-0.150;2022-07-10T07:57:45;102729.40;;;24.94;40.66
49063;BME280;34876;51.464;-0.150;2022-07-10T08:00:15;102732.61;;;24.72;41.14
49063;BME280;34876;51.464;-0.150;2022-07-10T08:02:44;102734.32;;;24.82;40.94
49063;BME280;34876;51.464;-0.150;2022-07-10T08:05:14;102735.82;;;24.69;41.02
49063;BME280;34876;51.464;-0.150;2022-07-10T08:07:46;102737.98;;;24.79;40.94
49063;BME280;34876;51.464;-0.150;2022-07-10T08:10:17;102731.40;;;24.94;40.62
49063;BME280;34876;51.464;-0.150;2022-07-10T08:12:47;102730.13;;;25.73;38.20
49063;BME280;34876;51.464;-0.150;2022-07-10T08:15:18;102730.72;;;26.42;37.45
49063;BME280;34876;51.464;-0.150;2022-07-10T08:17:48;102727.37;;;26.30;37.65
49063;BME280;34876;51.464;-0.150;2022-07-10T08:20:17;102727.25;;;25.87;37.48
49063;BME280;34876;51.464;-0.150;2022-07-10T08:22:48;102726.44;;;25.44;39.45
49063;BME280;34876;51.464;-0.150;2022-07-10T08:25:17;102726.39;;;25.36;39.67
49063;BME280;34876;51.464;-0.150;2022-07-10T08:27:47;102727.34;;;25.26;39.80
49063;BME280;34876;51.464;-0.150;2022-07-10T08:30:17;102726.42;;;25.31;39.84
49063;BME280;34876;51.464;-0.150;2022-07-10T08:32:46;102721.00;;;25.02;40.06
49063;BME280;34876;51.464;-0.150;2022-07-10T08:35:16;102721.06;;;25.21;40.05
49063;BME280;34876;51.464;-0.150;2022-07-10T08:37:45;102715.95;;;25.07;39.15
49063;BME280;34876;51.464;-0.150;2022-07-10T08:40:16;102720.99;;;24.82;40.80
49063;BME280;34876;51.464;-0.150;2022-07-10T08:42:45;102717.81;;;25.12;39.65
49063;BME280;34876;51.464;-0.150;2022-07-10T08:45:17;102719.27;;;25.21;40.14
49063;BME280;34876;51.464;-0.150;2022-07-10T08:47:48;102716.76;;;25.28;39.91
49063;BME280;34876;51.464;-0.150;2022-07-10T08:50:22;102716.50;;;25.48;38.88
49063;BME280;34876;51.464;-0.150;2022-07-10T08:52:59;102717.42;;;25.32;39.83
49063;BME280;34876;51.464;-0.150;2022-07-10T08:55:28;102715.94;;;25.45;39.57
49063;BME280;34876;51.464;-0.150;2022-07-10T08:57:58;102713.88;;;25.42;39.58
49063;BME280;34876;51.464;-0.150;2022-07-10T09:00:28;102712.84;;;25.06;40.39
49063;BME280;34876;51.464;-0.150;2022-07-10T09:02:57;102715.15;;;25.19;40.18
49063;BME280;34876;51.464;-0.150;2022-07-10T09:05:27;102716.03;;;25.37;39.75
49063;BME280;34876;51.464;-0.150;2022-07-10T09:07:56;102713.36;;;25.45;39.10
49063;BME280;34876;51.464;-0.150;2022-07-10T09:10:27;102714.48;;;25.32;39.74
49063;BME280;34876;51.464;-0.150;2022-07-10T09:12:58;102710.89;;;25.38;39.79
49063;BME280;34876;51.464;-0.150;2022-07-10T09:15:28;102707.77;;;25.51;39.51
49063;BME280;34876;51.464;-0.150;2022-07-10T09:18:00;102703.80;;;25.48;39.62
49063;BME280;34876;51.464;-0.150;2022-07-10T09:20:32;102700.02;;;25.46;39.67
49063;BME280;34876;51.464;-0.150;2022-07-10T09:23:15;102699.20;;;25.27;40.01
49063;BME280;34876;51.464;-0.150;2022-07-10T09:25:45;102693.04;;;25.40;39.83
49063;BME280;34876;51.464;-0.150;2022-07-10T09:28:17;102689.74;;;25.52;39.49
49063;BME280;34876;51.464;-0.150;2022-07-10T09:31:00;102690.02;;;26.02;38.56
49063;BME280;34876;51.464;-0.150;2022-07-10T09:33:31;102690.36;;;25.77;39.04
49063;BME280;34876;51.464;-0.150;2022-07-10T09:36:04;102684.12;;;26.21;38.34
49063;BME280;34876;51.464;-0.150;2022-07-10T09:38:52;102683.05;;;26.84;37.03
49063;BME280;34876;51.464;-0.150;2022-07-10T09:41:24;102681.75;;;27.16;36.32
49063;BME280;34876;51.464;-0.150;2022-07-10T09:43:56;102678.44;;;27.61;35.29
49063;BME280;34876;51.464;-0.150;2022-07-10T09:46:27;102671.62;;;27.74;35.04
49063;BME280;34876;51.464;-0.150;2022-07-10T09:49:02;102662.89;;;28.39;33.91
49063;BME280;34876;51.464;-0.150;2022-07-10T09:51:38;102659.75;;;28.91;33.13
49063;BME280;34876;51.464;-0.150;2022-07-10T09:54:09;102663.99;;;27.83;34.79
49063;BME280;34876;51.464;-0.150;2022-07-10T09:56:45;102652.48;;;27.96;34.85
49063;BME280;34876;51.464;-0.150;2022-07-10T09:59:15;102654.86;;;27.70;35.33
49063;BME280;34876;51.464;-0.150;2022-07-10T10:01:48;102653.25;;;27.72;35.16
49063;BME280;34876;51.464;-0.150;2022-07-10T10:04:21;102646.41;;;28.27;34.17
49063;BME280;34876;51.464;-0.150;2022-07-10T10:06:51;102646.06;;;29.17;32.67
49063;BME280;34876;51.464;-0.150;2022-07-10T10:09:23;102645.11;;;29.03;32.90
49063;BME280;34876;51.464;-0.150;2022-07-10T10:11:57;102643.98;;;28.81;33.50
49063;BME280;34876;51.464;-0.150;2022-07-10T10:14:26;102644.59;;;28.33;34.07
49063;BME280;34876;51.464;-0.150;2022-07-10T10:16:58;102642.99;;;28.81;33.10
49063;BME280;34876;51.464;-0.150;2022-07-10T10:19:30;102641.94;;;28.86;32.99
49063;BME280;34876;51.464;-0.150;2022-07-10T10:22:01;102637.95;;;28.47;34.06
49063;BME280;34876;51.464;-0.150;2022-07-10T10:24:32;102637.47;;;28.61;33.64
49063;BME280;34876;51.464;-0.150;2022-07-10T10:27:01;102636.30;;;29.18;32.82
49063;BME280;34876;51.464;-0.150;2022-07-10T10:29:35;102633.24;;;29.28;32.50
49063;BME280;34876;51.464;-0.150;2022-07-10T10:32:08;102629.20;;;28.72;33.20
49063;BME280;34876;51.464;-0.150;2022-07-10T10:34:40;102628.79;;;29.37;32.23
49063;BME280;34876;51.464;-0.150;2022-07-10T10:37:50;102632.16;;;29.18;32.49
49063;BME280;34876;51.464;-0.150;2022-07-10T10:40:31;102631.37;;;28.84;33.24
49063;BME280;34876;51.464;-0.150;2022-07-10T10:43:16;102626.86;;;28.48;33.98
49063;BME280;34876;51.464;-0.150;2022-07-10T10:45:47;102621.76;;;28.95;33.26
49063;BME280;34876;51.464;-0.150;2022-07-10T10:48:16;102617.98;;;29.25;32.50
49063;BME280;34876;51.464;-0.150;2022-07-10T10:50:47;102612.07;;;29.64;31.80
49063;BME280;34876;51.464;-0.150;2022-07-10T10:53:18;102611.86;;;29.33;32.50
49063;BME280;34876;51.464;-0.150;2022-07-10T10:57:11;102611.26;;;28.96;33.01
49063;BME280;34876;51.464;-0.150;2022-07-10T10:59:45;102608.67;;;28.45;33.58
49063;BME280;34876;51.464;-0.150;2022-07-10T11:02:24;102610.57;;;28.80;32.72
49063;BME280;34876;51.464;-0.150;2022-07-10T11:05:38;102606.67;;;28.27;33.42
49063;BME280;34876;51.464;-0.150;2022-07-10T11:08:07;102602.65;;;28.07;33.60
49063;BME280;34876;51.464;-0.150;2022-07-10T11:10:38;102601.28;;;27.93;33.59
49063;BME280;34876;51.464;-0.150;2022-07-10T11:13:09;102602.95;;;28.03;33.20
49063;BME280;34876;51.464;-0.150;2022-07-10T11:15:41;102599.91;;;28.28;32.70
49063;BME280;34876;51.464;-0.150;2022-07-10T11:18:12;102599.37;;;28.13;33.22
49063;BME280;34876;51.464;-0.150;2022-07-10T11:20:43;102596.70;;;28.58;32.56
49063;BME280;34876;51.464;-0.150;2022-07-10T11:23:56;102592.65;;;28.32;32.71
49063;BME280;34876;51.464;-0.150;2022-07-10T11:26:35;102586.26;;;28.23;33.04
49063;BME280;34876;51.464;-0.150;2022-07-10T11:29:05;102587.39;;;27.82;33.90
49063;BME280;34876;51.464;-0.150;2022-07-10T11:31:34;102582.41;;;27.94;33.91
49063;BME280;34876;51.464;-0.150;2022-07-10T11:34:04;102584.06;;;27.93;33.37
49063;BME280;34876;51.464;-0.150;2022-07-10T11:36:33;102578.55;;;28.18;32.01
49063;BME280;34876;51.464;-0.150;2022-07-10T11:39:04;102579.66;;;28.32;32.51
49063;BME280;34876;51.464;-0.150;2022-07-10T11:41:33;102580.01;;;28.31;33.43
49063;BME280;34876;51.464;-0.150;2022-07-10T11:44:03;102574.26;;;28.02;32.84
49063;BME280;34876;51.464;-0.150;2022-07-10T11:46:34;102569.28;;;28.19;34.02
49063;BME280;34876;51.464;-0.150;2022-07-10T11:49:05;102578.53;;;27.25;33.95
49063;BME280;34876;51.464;-0.150;2022-07-10T11:51:36;102580.63;;;27.19;36.47
49063;BME280;34876;51.464;-0.150;2022-07-10T11:54:07;102577.31;;;27.38;33.35
49063;BME280;34876;51.464;-0.150;2022-07-10T11:56:38;102574.45;;;26.79;35.04
49063;BME280;34876;51.464;-0.150;2022-07-10T11:59:09;102570.84;;;27.20;33.91
49063;BME280;34876;51.464;-0.150;2022-07-10T12:01:42;102567.16;;;27.28;34.05
49063;BME280;34876;51.464;-0.150;2022-07-10T12:04:13;102560.85;;;27.82;34.70
49063;BME280;34876;51.464;-0.150;2022-07-10T12:06:44;102556.03;;;27.45;33.91
49063;BME280;34876;51.464;-0.150;2022-07-10T12:09:15;102562.55;;;27.10;36.66
49063;BME280;34876;51.464;-0.150;2022-07-10T12:11:58;102560.85;;;27.11;33.99
49063;BME280;34876;51.464;-0.150;2022-07-10T12:14:27;102563.30;;;26.93;33.99
49063;BME280;34876;51.464;-0.150;2022-07-10T12:16:58;102560.28;;;26.60;35.28
49063;BME280;34876;51.464;-0.150;2022-07-10T12:19:30;102554.88;;;26.92;34.10
49063;BME280;34876;51.464;-0.150;2022-07-10T12:21:59;102557.94;;;26.29;38.81
49063;BME280;34876;51.464;-0.150;2022-07-10T12:24:29;102553.03;;;26.76;33.81
49063;BME280;34876;51.464;-0.150;2022-07-10T12:26:58;102553.57;;;26.75;37.26
49063;BME280;34876;51.464;-0.150;2022-07-10T12:29:29;102556.21;;;26.51;34.24
49063;BME280;34876;51.464;-0.150;2022-07-10T12:31:59;102551.40;;;26.80;37.47
49063;BME280;34876;51.464;-0.150;2022-07-10T12:34:38;102544.46;;;26.98;33.34
49063;BME280;34876;51.464;-0.150;2022-07-10T12:37:08;102546.25;;;26.65;36.72
49063;BME280;34876;51.464;-0.150;2022-07-10T12:39:45;102547.12;;;26.75;37.35
49063;BME280;34876;51.464;-0.150;2022-07-10T12:42:25;102547.88;;;26.88;36.26
49063;BME280;34876;51.464;-0.150;2022-07-10T12:45:09;102548.41;;;26.75;37.53
49063;BME280;34876;51.464;-0.150;2022-07-10T12:47:44;102543.97;;;26.92;33.96
49063;BME280;34876;51.464;-0.150;2022-07-10T12:50:14;102536.37;;;27.14;32.54
49063;BME280;34876;51.464;-0.150;2022-07-10T12:52:43;102534.01;;;26.51;33.87
49063;BME280;34876;51.464;-0.150;2022-07-10T12:55:14;102535.44;;;26.36;37.61
49063;BME280;34876;51.464;-0.150;2022-07-10T12:57:46;102533.62;;;26.90;36.05
49063;BME280;34876;51.464;-0.150;2022-07-10T13:00:17;102529.84;;;27.04;34.22
49063;BME280;34876;51.464;-0.150;2022-07-10T13:02:47;102519.88;;;26.97;36.39